Time;durP1;ratioP1;P1;durP2;ratioP2;P2;SDS_P1;SDS_P2;PMS_P1;PMS_P2;Temp;Humidity;BMP_temperature;BMP_pressure;BME280_temperature;BME280_humidity;BME280_pressure;Samples;Min_cycle;Max_cycle;Signal;HPM_P1;HPM_P2
2024/03/11 00:01:39;;;;;;;57.20;3.93;;;;;;;;;;5018873;28;20448;-69
2024/03/11 00:04:07;;;;;;;57.33;3.20;;;;;;;;;;5026634;28;20476;-69
2024/03/11 00:06:35;;;;;;;56.30;3.10;;;;;;;;;;5018355;28;20499;-69
2024/03/11 00:09:03;;;;;;;56.77;3.40;;;;;;;;;;5025565;28;20460;-69
2024/03/11 00:11:30;;;;;;;56.83;3.13;;;;;;;;;;5016632;28;20456;-69
2024/03/11 00:13:58;;;;;;;56.53;3.07;;;;;;;;;;5014924;28;20449;-69
2024/03/11 00:16:25;;;;;;;56.40;3.13;;;;;;;;;;5012131;28;20961;-70
2024/03/11 00:18:54;;;;;;;56.40;3.13;;;;;;;;;;5023146;28;20467;-70
2024/03/11 00:21:21;;;;;;;56.27;2.50;;;;;;;;;;5014470;28;20455;-70
2024/03/11 00:23:48;;;;;;;56.10;3.13;;;;;;;;;;5014905;28;20824;-70
2024/03/11 00:26:15;;;;;;;56.70;3.00;;;;;;;;;;5013219;28;20467;-70
2024/03/11 00:28:42;;;;;;;56.30;3.17;;;;;;;;;;5027122;28;20505;-69
2024/03/11 00:31:11;;;;;;;57.57;3.70;;;;;;;;;;5022567;28;21052;-70
2024/03/11 00:33:38;;;;;;;56.47;3.17;;;;;;;;;;5033584;28;20466;-69
2024/03/11 00:36:07;;;;;;;56.00;3.10;;;;;;;;;;5033876;28;20447;-69
2024/03/11 00:38:34;;;;;;;59.70;3.80;;;;;;;;;;5033953;28;20559;-69
2024/03/11 00:41:02;;;;;;;56.17;3.30;;;;;;;;;;5025789;28;20453;-70
2024/03/11 00:43:29;;;;;;;56.47;3.07;;;;;;;;;;5025524;28;20452;-70
2024/03/11 00:45:56;;;;;;;56.77;3.67;;;;;;;;;;5034020;28;20457;-70
2024/03/11 00:48:23;;;;;;;56.37;3.00;;;;;;;;;;5033803;28;20866;-70
2024/03/11 00:50:50;;;;;;;56.67;3.23;;;;;;;;;;5033412;28;20462;-70
2024/03/11 00:53:18;;;;;;;55.90;3.30;;;;;;;;;;5022023;28;20460;-70
2024/03/11 00:55:46;;;;;;;56.53;3.73;;;;;;;;;;5005962;28;20823;-70
2024/03/11 00:58:13;;;;;;;56.83;3.23;;;;;;;;;;5013929;28;20477;-70
2024/03/11 01:00:41;;;;;;;57.53;3.33;;;;;;;;;;5014016;28;20457;-70
2024/03/11 01:03:09;;;;;;;56.93;3.43;;;;;;;;;;5014162;28;20507;-70
2024/03/11 01:05:36;;;;;;;57.20;3.70;;;;;;;;;;5013689;28;20546;-70
2024/03/11 01:08:03;;;;;;;56.40;3.07;;;;;;;;;;5013077;28;21007;-70
2024/03/11 01:10:31;;;;;;;56.63;3.33;;;;;;;;;;5013571;28;20457;-70
2024/03/11 01:12:58;;;;;;;56.70;3.47;;;;;;;;;;5014066;28;20460;-70
2024/03/11 01:15:26;;;;;;;56.70;3.30;;;;;;;;;;5013681;28;20453;-70
2024/03/11 01:17:55;;;;;;;56.60;3.23;;;;;;;;;;5013404;28;20490;-70
2024/03/11 01:20:24;;;;;;;57.30;3.73;;;;;;;;;;5013455;28;20457;-70
2024/03/11 01:22:51;;;;;;;56.70;3.60;;;;;;;;;;5013693;28;20504;-70
2024/03/11 01:25:20;;;;;;;56.87;3.53;;;;;;;;;;5013559;28;20455;-70
2024/03/11 01:27:49;;;;;;;57.37;4.23;;;;;;;;;;5013361;28;20492;-70
2024/03/11 01:30:16;;;;;;;57.50;3.77;;;;;;;;;;5013555;28;20453;-70
2024/03/11 01:32:44;;;;;;;56.53;3.50;;;;;;;;;;5013405;28;20537;-70
2024/03/11 01:35:12;;;;;;;56.80;3.47;;;;;;;;;;5020125;28;20697;-70
2024/03/11 01:37:39;;;;;;;57.87;4.03;;;;;;;;;;5032379;28;20476;-70
2024/03/11 01:40:09;;;;;;;56.30;3.00;;;;;;;;;;5033183;28;20510;-70
2024/03/11 01:42:36;;;;;;;56.87;3.83;;;;;;;;;;5033281;28;20871;-70
2024/03/11 01:45:05;;;;;;;56.27;3.30;;;;;;;;;;5033325;28;20859;-70
2024/03/11 01:47:33;;;;;;;56.20;3.03;;;;;;;;;;5032703;28;20491;-70
2024/03/11 01:50:00;;;;;;;57.13;3.30;;;;;;;;;;5032743;28;20454;-70
2024/03/11 01:52:30;;;;;;;56.97;3.77;;;;;;;;;;5032819;28;20458;-70
2024/03/11 01:54:57;;;;;;;58.03;3.67;;;;;;;;;;5032881;28;20459;-70
2024/03/11 01:57:26;;;;;;;56.77;3.13;;;;;;;;;;5032532;28;20972;-70
2024/03/11 01:59:54;;;;;;;56.80;3.60;;;;;;;;;;5032719;28;20479;-69
2024/03/11 02:02:23;;;;;;;56.37;3.13;;;;;;;;;;5032537;28;20532;-70
2024/03/11 02:04:51;;;;;;;59.60;3.87;;;;;;;;;;5009141;28;21069;-70
2024/03/11 02:07:19;;;;;;;56.60;3.30;;;;;;;;;;5032388;28;21016;-70
2024/03/11 02:09:47;;;;;;;56.47;3.57;;;;;;;;;;5032507;28;20451;-70
2024/03/11 02:12:17;;;;;;;57.00;3.90;;;;;;;;;;5032860;28;20482;-70
2024/03/11 02:14:45;;;;;;;56.60;3.50;;;;;;;;;;5032289;28;20946;-70
2024/03/11 02:17:13;;;;;;;56.10;3.43;;;;;;;;;;5031899;28;20992;-70
2024/03/11 02:19:42;;;;;;;57.03;3.70;;;;;;;;;;5031500;28;20444;-70
2024/03/11 02:22:09;;;;;;;56.93;3.67;;;;;;;;;;5032612;28;20461;-70
2024/03/11 02:24:38;;;;;;;56.90;4.43;;;;;;;;;;5032219;28;20466;-70
2024/03/11 02:27:07;;;;;;;56.60;3.57;;;;;;;;;;5031849;28;20561;-70
2024/03/11 02:29:35;;;;;;;58.20;3.70;;;;;;;;;;5032027;28;20451;-70
2024/03/11 02:32:02;;;;;;;57.13;3.83;;;;;;;;;;5031913;28;20472;-70
2024/03/11 02:34:30;;;;;;;56.70;3.73;;;;;;;;;;5032143;28;20478;-70
2024/03/11 02:36:57;;;;;;;56.30;3.43;;;;;;;;;;5031779;28;20488;-70
2024/03/11 02:39:27;;;;;;;56.37;3.43;;;;;;;;;;5031882;28;20940;-70
2024/03/11 02:41:56;;;;;;;56.83;3.00;;;;;;;;;;5004813;28;20796;-70
2024/03/11 02:44:23;;;;;;;56.50;3.70;;;;;;;;;;5012007;28;20456;-70
2024/03/11 02:46:50;;;;;;;56.20;3.40;;;;;;;;;;5011099;28;20469;-70
2024/03/11 02:49:18;;;;;;;56.47;3.90;;;;;;;;;;5012030;28;20507;-70
2024/03/11 02:51:45;;;;;;;56.97;3.30;;;;;;;;;;5011828;28;20479;-70
2024/03/11 02:54:14;;;;;;;56.73;3.73;;;;;;;;;;5011981;28;20464;-70
2024/03/11 02:56:41;;;;;;;56.00;3.40;;;;;;;;;;5011840;28;20480;-70
2024/03/11 02:59:09;;;;;;;56.27;3.40;;;;;;;;;;5012094;28;20481;-70
2024/03/11 03:01:37;;;;;;;56.77;3.80;;;;;;;;;;5011832;28;20449;-70
2024/03/11 03:04:05;;;;;;;57.27;3.90;;;;;;;;;;5011653;28;20845;-70
2024/03/11 03:06:32;;;;;;;56.30;3.00;;;;;;;;;;5011794;28;20543;-70
2024/03/11 03:09:00;;;;;;;56.80;3.47;;;;;;;;;;5011764;28;20494;-70
2024/03/11 03:11:27;;;;;;;56.07;3.10;;;;;;;;;;5011788;28;20457;-70
2024/03/11 03:13:54;;;;;;;56.90;3.60;;;;;;;;;;5011819;28;20449;-70
2024/03/11 03:16:23;;;;;;;56.50;3.50;;;;;;;;;;5011522;28;20480;-70
2024/03/11 03:18:50;;;;;;;56.40;2.90;;;;;;;;;;5011573;28;20444;-70
2024/03/11 03:21:17;;;;;;;57.77;3.80;;;;;;;;;;5011432;28;20828;-70
2024/03/11 03:23:44;;;;;;;57.00;4.30;;;;;;;;;;5011537;28;20451;-70
2024/03/11 03:26:11;;;;;;;56.60;3.73;;;;;;;;;;5011211;28;20945;-70
2024/03/11 03:28:38;;;;;;;56.30;3.10;;;;;;;;;;5011544;28;20580;-70
2024/03/11 03:31:05;;;;;;;56.60;3.67;;;;;;;;;;5012140;28;20461;-70
2024/03/11 03:33:34;;;;;;;57.73;3.87;;;;;;;;;;5015533;28;20456;-70
2024/03/11 03:36:02;;;;;;;56.50;3.33;;;;;;;;;;5015213;28;20486;-70
2024/03/11 03:38:30;;;;;;;57.90;4.43;;;;;;;;;;5015297;28;20456;-70
2024/03/11 03:40:57;;;;;;;57.70;3.43;;;;;;;;;;5015594;28;20873;-70
2024/03/11 03:43:24;;;;;;;56.63;3.57;;;;;;;;;;5015515;28;20455;-70
2024/03/11 03:45:53;;;;;;;56.47;3.70;;;;;;;;;;5015549;28;20453;-70
2024/03/11 03:48:21;;;;;;;56.87;3.57;;;;;;;;;;5015164;28;20560;-70
2024/03/11 03:50:50;;;;;;;56.23;3.40;;;;;;;;;;5015334;28;20455;-70
2024/03/11 03:53:18;;;;;;;57.17;3.70;;;;;;;;;;5015481;28;20488;-70
2024/03/11 03:55:45;;;;;;;56.30;3.47;;;;;;;;;;5015107;28;20495;-70
2024/03/11 03:58:12;;;;;;;57.43;4.10;;;;;;;;;;5015106;28;20471;-70
2024/03/11 04:00:39;;;;;;;57.50;3.80;;;;;;;;;;5014902;28;20447;-70
2024/03/11 04:03:07;;;;;;;56.43;3.60;;;;;;;;;;5015115;28;20515;-70
2024/03/11 04:05:34;;;;;;;56.70;3.40;;;;;;;;;;5014958;28;20461;-70
2024/03/11 04:08:02;;;;;;;56.07;3.10;;;;;;;;;;5014946;28;20498;-71
2024/03/11 04:10:30;;;;;;;58.57;3.67;;;;;;;;;;5015324;28;20549;-70
2024/03/11 04:12:58;;;;;;;56.40;3.53;;;;;;;;;;5015213;28;20452;-70
2024/03/11 04:15:25;;;;;;;57.00;3.87;;;;;;;;;;5014868;28;20456;-70
2024/03/11 04:17:55;;;;;;;56.20;3.10;;;;;;;;;;5014719;28;20561;-70
2024/03/11 04:20:27;;;;;;;56.97;3.40;;;;;;;;;;5014962;28;20937;-70
2024/03/11 04:22:54;;;;;;;56.60;3.10;;;;;;;;;;5014891;28;20869;-70
2024/03/11 04:25:23;;;;;;;56.20;3.10;;;;;;;;;;5014796;28;20920;-70
2024/03/11 04:27:51;;;;;;;56.30;3.43;;;;;;;;;;5014228;28;20475;-70
2024/03/11 04:30:20;;;;;;;56.60;3.53;;;;;;;;;;5015073;28;20459;-71
2024/03/11 04:32:52;;;;;;;56.50;3.40;;;;;;;;;;5014411;28;20825;-71
2024/03/11 04:35:19;;;;;;;57.03;3.60;;;;;;;;;;5014739;28;20495;-70
2024/03/11 04:37:46;;;;;;;56.73;3.70;;;;;;;;;;5014088;28;20491;-70
2024/03/11 04:40:13;;;;;;;57.30;4.20;;;;;;;;;;5014476;28;20920;-70
2024/03/11 04:42:42;;;;;;;57.77;4.13;;;;;;;;;;5013317;28;20452;-70
2024/03/11 04:45:10;;;;;;;57.90;4.40;;;;;;;;;;5014555;28;20455;-70
2024/03/11 04:47:37;;;;;;;58.27;5.13;;;;;;;;;;5014102;28;20542;-70
2024/03/11 04:50:05;;;;;;;59.07;5.67;;;;;;;;;;5014289;28;20498;-69
2024/03/11 04:52:33;;;;;;;58.67;4.93;;;;;;;;;;5014138;28;20461;-70
2024/03/11 04:55:01;;;;;;;58.30;4.83;;;;;;;;;;5014126;28;20460;-69
2024/03/11 04:57:28;;;;;;;58.70;5.00;;;;;;;;;;5014178;28;20499;-69
2024/03/11 04:59:56;;;;;;;57.87;4.87;;;;;;;;;;5014092;28;20454;-69
2024/03/11 05:02:24;;;;;;;58.87;5.23;;;;;;;;;;5013981;28;20448;-69
2024/03/11 05:04:51;;;;;;;59.83;4.60;;;;;;;;;;5013675;28;20486;-69
2024/03/11 05:07:18;;;;;;;57.43;4.43;;;;;;;;;;5013713;28;20485;-69
2024/03/11 05:09:46;;;;;;;58.70;4.80;;;;;;;;;;5013633;28;20496;-69
2024/03/11 05:12:13;;;;;;;59.33;5.37;;;;;;;;;;5014009;28;20902;-69
2024/03/11 05:14:40;;;;;;;59.67;4.93;;;;;;;;;;5013857;28;20461;-70
2024/03/11 05:17:08;;;;;;;57.20;4.60;;;;;;;;;;5013594;28;20465;-70
2024/03/11 05:19:36;;;;;;;60.20;5.10;;;;;;;;;;5013551;28;20542;-70
2024/03/11 05:22:03;;;;;;;57.00;3.97;;;;;;;;;;5013790;28;20448;-70
2024/03/11 05:24:30;;;;;;;61.20;4.93;;;;;;;;;;5013872;28;20835;-70
2024/03/11 05:26:57;;;;;;;57.90;4.10;;;;;;;;;;5013628;28;20466;-70
2024/03/11 05:29:24;;;;;;;56.57;3.40;;;;;;;;;;5013545;28;21002;-70
2024/03/11 05:31:51;;;;;;;57.20;4.20;;;;;;;;;;5013828;28;20450;-70
2024/03/11 05:34:20;;;;;;;58.73;4.50;;;;;;;;;;5013817;28;20457;-70
2024/03/11 05:36:47;;;;;;;57.40;4.10;;;;;;;;;;5012991;28;20568;-70
2024/03/11 05:39:14;;;;;;;58.30;5.17;;;;;;;;;;5014088;28;20448;-70
2024/03/11 05:41:43;;;;;;;58.73;5.07;;;;;;;;;;5013526;28;20452;-70
2024/03/11 05:44:10;;;;;;;58.90;4.40;;;;;;;;;;5013734;28;20819;-70
2024/03/11 05:46:37;;;;;;;57.58;4.30;;;;;;;;;;5012774;28;20477;-70
2024/03/11 05:49:05;;;;;;;57.33;4.32;;;;;;;;;;5013353;28;20781;-70
2024/03/11 05:51:35;;;;;;;57.73;4.80;;;;;;;;;;5013662;28;20583;-70
2024/03/11 05:54:02;;;;;;;56.80;3.70;;;;;;;;;;5005510;28;20459;-70
2024/03/11 05:56:30;;;;;;;56.97;4.00;;;;;;;;;;5013064;28;20471;-70
2024/03/11 05:58:57;;;;;;;58.27;4.60;;;;;;;;;;5013209;28;20449;-70
2024/03/11 06:01:24;;;;;;;59.87;4.80;;;;;;;;;;5013033;28;20447;-70
2024/03/11 06:03:51;;;;;;;57.40;4.18;;;;;;;;;;5012962;28;20447;-70
2024/03/11 06:06:19;;;;;;;60.55;6.20;;;;;;;;;;5013020;28;20208;-70
2024/03/11 06:08:47;;;;;;;59.67;5.87;;;;;;;;;;5013225;28;20225;-70
2024/03/11 06:11:14;;;;;;;61.40;6.83;;;;;;;;;;5013267;28;20455;-70
2024/03/11 06:13:41;;;;;;;58.37;5.10;;;;;;;;;;5012945;28;20461;-70
2024/03/11 06:16:08;;;;;;;61.23;5.33;;;;;;;;;;5014505;28;20452;-70
2024/03/11 06:18:38;;;;;;;59.13;3.90;;;;;;;;;;5031184;28;20473;-70
2024/03/11 06:21:05;;;;;;;56.60;4.10;;;;;;;;;;5032756;28;20570;-70
2024/03/11 06:23:33;;;;;;;57.20;3.70;;;;;;;;;;5032754;28;20525;-69
2024/03/11 06:26:03;;;;;;;56.20;3.60;;;;;;;;;;5032168;28;20582;-70
2024/03/11 06:28:30;;;;;;;56.90;3.78;;;;;;;;;;5025388;28;20617;-70
2024/03/11 06:30:57;;;;;;;56.85;3.40;;;;;;;;;;5019685;28;20223;-70
2024/03/11 06:33:25;;;;;;;57.00;3.90;;;;;;;;;;5027101;28;20703;-70
2024/03/11 06:35:52;;;;;;;57.23;3.70;;;;;;;;;;5015751;28;20462;-70
2024/03/11 06:38:19;;;;;;;56.87;3.40;;;;;;;;;;5023807;28;20486;-70
2024/03/11 06:40:46;;;;;;;56.67;3.70;;;;;;;;;;5030829;28;20462;-70
2024/03/11 06:43:15;;;;;;;58.40;3.72;;;;;;;;;;5018098;28;20629;-70
2024/03/11 06:45:42;;;;;;;57.47;3.43;;;;;;;;;;5024079;28;20216;-70
2024/03/11 06:48:10;;;;;;;56.97;3.23;;;;;;;;;;5032147;28;21014;-70
2024/03/11 06:50:38;;;;;;;56.23;3.07;;;;;;;;;;5031802;28;20493;-70
2024/03/11 06:53:07;;;;;;;57.07;3.67;;;;;;;;;;5031947;28;20455;-70
2024/03/11 06:55:35;;;;;;;59.33;3.27;;;;;;;;;;5031779;28;20454;-70
2024/03/11 06:58:02;;;;;;;57.70;3.37;;;;;;;;;;5011972;28;20817;-70
2024/03/11 07:00:31;;;;;;;56.13;3.33;;;;;;;;;;5011966;28;20444;-70
2024/03/11 07:02:58;;;;;;;57.37;3.70;;;;;;;;;;5011926;28;20459;-70
2024/03/11 07:05:27;;;;;;;57.97;3.60;;;;;;;;;;5011587;28;20453;-70
2024/03/11 07:07:55;;;;;;;57.67;3.20;;;;;;;;;;5011735;28;20476;-70
2024/03/11 07:10:23;;;;;;;56.27;2.93;;;;;;;;;;5011734;28;20499;-70
2024/03/11 07:12:50;;;;;;;55.87;2.60;;;;;;;;;;5029928;28;20465;-70
2024/03/11 07:15:18;;;;;;;60.63;3.67;;;;;;;;;;5031703;28;20447;-70
2024/03/11 07:17:47;;;;;;;56.90;3.37;;;;;;;;;;5031300;28;20476;-70
2024/03/11 07:20:14;;;;;;;55.63;2.43;;;;;;;;;;5031663;28;20447;-70
2024/03/11 07:22:42;;;;;;;57.10;2.80;;;;;;;;;;5031592;28;20457;-70
2024/03/11 07:25:10;;;;;;;57.80;3.40;;;;;;;;;;5031544;28;20960;-70
2024/03/11 07:27:37;;;;;;;55.87;2.90;;;;;;;;;;5031442;28;20472;-70
2024/03/11 07:30:06;;;;;;;56.00;2.80;;;;;;;;;;5031622;28;20494;-70
2024/03/11 07:32:33;;;;;;;56.50;3.07;;;;;;;;;;5031793;28;20832;-70
2024/03/11 07:35:02;;;;;;;55.90;2.90;;;;;;;;;;5031505;28;20882;-70
2024/03/11 07:37:29;;;;;;;56.20;2.90;;;;;;;;;;5031087;28;20490;-70
2024/03/11 07:39:57;;;;;;;57.10;2.70;;;;;;;;;;5031444;28;20448;-70
2024/03/11 07:42:25;;;;;;;56.00;3.03;;;;;;;;;;5031491;28;20458;-70
2024/03/11 07:44:52;;;;;;;55.90;2.63;;;;;;;;;;5031432;28;20484;-70
2024/03/11 07:47:19;;;;;;;56.00;2.57;;;;;;;;;;5031150;28;20849;-70
2024/03/11 07:49:48;;;;;;;56.47;2.87;;;;;;;;;;5031095;28;20488;-70
2024/03/11 07:52:16;;;;;;;56.20;2.50;;;;;;;;;;5031213;28;20450;-70
2024/03/11 07:54:43;;;;;;;57.20;2.40;;;;;;;;;;5031182;28;20486;-71
2024/03/11 07:57:10;;;;;;;61.03;2.63;;;;;;;;;;5031158;28;20819;-71
2024/03/11 07:59:37;;;;;;;55.90;2.20;;;;;;;;;;5031242;28;20450;-71
2024/03/11 08:02:05;;;;;;;55.47;2.20;;;;;;;;;;5031358;28;20449;-71
2024/03/11 08:04:32;;;;;;;55.97;2.60;;;;;;;;;;5031378;28;20451;-71
2024/03/11 08:06:59;;;;;;;56.00;2.33;;;;;;;;;;5031347;28;20476;-71
2024/03/11 08:09:30;;;;;;;57.00;2.87;;;;;;;;;;5031162;28;21007;-73
2024/03/11 08:11:57;;;;;;;56.40;2.70;;;;;;;;;;5031203;28;20468;-69
2024/03/11 08:14:25;;;;;;;56.50;2.23;;;;;;;;;;5031311;28;20567;-71
2024/03/11 08:16:52;;;;;;;56.77;2.10;;;;;;;;;;5031590;28;20522;-72
2024/03/11 08:19:19;;;;;;;56.10;2.30;;;;;;;;;;5034993;28;20525;-69
2024/03/11 08:21:47;;;;;;;55.93;2.40;;;;;;;;;;5034647;28;20933;-69
2024/03/11 08:24:14;;;;;;;55.80;2.37;;;;;;;;;;5034963;28;20450;-69
2024/03/11 08:26:43;;;;;;;57.30;2.50;;;;;;;;;;5034639;28;21043;-72
2024/03/11 08:29:10;;;;;;;55.80;2.30;;;;;;;;;;5007117;28;20444;-70
2024/03/11 08:31:37;;;;;;;57.20;2.87;;;;;;;;;;5015315;28;20448;-70
2024/03/11 08:34:05;;;;;;;56.30;2.30;;;;;;;;;;5015209;28;20454;-71
2024/03/11 08:36:33;;;;;;;55.57;2.10;;;;;;;;;;5014705;28;20854;-71
2024/03/11 08:39:01;;;;;;;55.47;2.40;;;;;;;;;;5015021;28;20467;-71
2024/03/11 08:41:28;;;;;;;55.87;2.10;;;;;;;;;;5015285;28;20503;-71
2024/03/11 08:43:57;;;;;;;58.27;2.73;;;;;;;;;;5017770;28;20459;-71
2024/03/11 08:46:24;;;;;;;57.80;2.60;;;;;;;;;;5034064;28;20483;-71
2024/03/11 08:48:51;;;;;;;56.00;2.50;;;;;;;;;;5034468;28;20801;-71
2024/03/11 08:51:18;;;;;;;55.97;2.43;;;;;;;;;;5034418;28;20494;-69
2024/03/11 08:53:45;;;;;;;56.30;2.40;;;;;;;;;;5034289;28;20449;-72
2024/03/11 08:56:12;;;;;;;58.00;2.50;;;;;;;;;;5033932;28;20460;-71
2024/03/11 08:58:40;;;;;;;55.90;2.57;;;;;;;;;;5034422;28;20445;-71
2024/03/11 09:01:09;;;;;;;55.60;2.30;;;;;;;;;;5034109;28;20449;-71
2024/03/11 09:03:37;;;;;;;56.30;2.50;;;;;;;;;;5034143;28;20483;-70
2024/03/11 09:06:05;;;;;;;55.77;2.10;;;;;;;;;;5033836;28;20510;-70
2024/03/11 09:08:33;;;;;;;55.97;2.60;;;;;;;;;;5033934;28;20493;-70
2024/03/11 09:11:04;;;;;;;55.67;2.50;;;;;;;;;;5033805;28;21019;-70
2024/03/11 09:13:31;;;;;;;57.10;2.70;;;;;;;;;;5034071;28;20545;-70
2024/03/11 09:15:59;;;;;;;56.10;2.50;;;;;;;;;;5034047;28;20446;-70
2024/03/11 09:18:27;;;;;;;55.60;2.50;;;;;;;;;;5033760;28;20588;-69
2024/03/11 09:20:55;;;;;;;56.40;2.83;;;;;;;;;;5033609;28;20449;-70
2024/03/11 09:23:23;;;;;;;56.60;2.20;;;;;;;;;;5034088;28;20891;-70
2024/03/11 09:25:50;;;;;;;56.60;2.50;;;;;;;;;;5033396;28;20457;-70
2024/03/11 09:28:17;;;;;;;56.10;2.50;;;;;;;;;;5033328;28;20953;-70
2024/03/11 09:30:46;;;;;;;56.00;2.37;;;;;;;;;;5032743;28;20966;-70
2024/03/11 09:33:14;;;;;;;56.00;2.50;;;;;;;;;;5033380;28;20985;-70
2024/03/11 09:35:42;;;;;;;57.40;2.73;;;;;;;;;;5033143;28;20826;-70
2024/03/11 09:38:12;;;;;;;56.03;2.30;;;;;;;;;;5032961;28;20470;-70
2024/03/11 09:40:39;;;;;;;57.17;2.40;;;;;;;;;;5033105;28;20461;-70
2024/03/11 09:43:11;;;;;;;55.37;2.37;;;;;;;;;;5033200;28;20541;-71
2024/03/11 09:45:40;;;;;;;56.83;1.97;;;;;;;;;;5033208;28;20457;-70
2024/03/11 09:48:08;;;;;;;55.90;2.13;;;;;;;;;;5032887;28;21012;-70
2024/03/11 09:50:37;;;;;;;55.90;2.10;;;;;;;;;;5033277;28;20486;-70
2024/03/11 09:53:07;;;;;;;55.43;2.30;;;;;;;;;;5033046;28;20465;-70
2024/03/11 09:55:35;;;;;;;55.90;2.37;;;;;;;;;;5032975;28;20830;-70
2024/03/11 09:58:05;;;;;;;55.97;2.30;;;;;;;;;;5033073;28;20501;-70
2024/03/11 10:00:34;;;;;;;56.77;2.30;;;;;;;;;;5032797;28;21010;-70
2024/03/11 10:03:02;;;;;;;56.50;2.17;;;;;;;;;;5032913;28;20452;-71
2024/03/11 10:05:31;;;;;;;55.70;2.30;;;;;;;;;;5032677;28;20508;-71
2024/03/11 10:07:59;;;;;;;56.57;2.20;;;;;;;;;;5032965;28;20477;-69
2024/03/11 10:10:29;;;;;;;56.20;2.00;;;;;;;;;;5032987;28;20489;-70
2024/03/11 10:12:58;;;;;;;55.67;2.10;;;;;;;;;;5032895;28;20456;-70
2024/03/11 10:15:27;;;;;;;55.57;2.13;;;;;;;;;;5019559;28;20504;-70
2024/03/11 10:17:55;;;;;;;55.50;2.10;;;;;;;;;;5013391;28;20520;-70
2024/03/11 10:20:22;;;;;;;55.67;2.00;;;;;;;;;;5032677;28;20862;-70
2024/03/11 10:22:50;;;;;;;55.97;2.07;;;;;;;;;;5032435;28;20446;-70
2024/03/11 10:25:25;;;;;;;56.20;2.10;;;;;;;;;;5032337;28;20548;-70
2024/03/11 10:27:55;;;;;;;55.90;2.10;;;;;;;;;;5032110;28;20465;-70
2024/03/11 10:30:22;;;;;;;55.67;2.20;;;;;;;;;;5032166;28;20531;-71
2024/03/11 10:32:52;;;;;;;57.40;1.93;;;;;;;;;;5032563;28;20461;-71
2024/03/11 10:35:21;;;;;;;55.77;2.00;;;;;;;;;;5032419;28;20460;-71
2024/03/11 10:37:50;;;;;;;55.77;1.97;;;;;;;;;;5032038;28;20474;-71
2024/03/11 10:40:18;;;;;;;55.87;1.73;;;;;;;;;;5004280;28;20470;-71
2024/03/11 10:42:52;;;;;;;55.50;1.97;;;;;;;;;;5012078;28;20447;-71
2024/03/11 10:45:30;;;;;;;55.57;2.20;;;;;;;;;;5012684;28;20461;-70
2024/03/11 10:48:00;;;;;;;55.57;1.97;;;;;;;;;;5012181;28;20470;-70
2024/03/11 10:50:28;;;;;;;55.77;2.20;;;;;;;;;;5012269;28;20533;-70
2024/03/11 10:52:57;;;;;;;55.60;1.83;;;;;;;;;;5012187;28;20461;-70
2024/03/11 10:55:25;;;;;;;56.20;2.30;;;;;;;;;;5012128;28;20465;-70
2024/03/11 10:57:54;;;;;;;56.10;2.13;;;;;;;;;;5011958;28;20954;-70
2024/03/11 11:00:21;;;;;;;56.40;2.00;;;;;;;;;;5012116;28;20453;-69
2024/03/11 11:02:53;;;;;;;55.90;2.37;;;;;;;;;;5012322;28;21023;-69
2024/03/11 11:05:22;;;;;;;55.87;2.30;;;;;;;;;;5004821;28;20446;-69
2024/03/11 11:07:51;;;;;;;56.00;2.10;;;;;;;;;;5011587;28;20466;-71
2024/03/11 11:10:20;;;;;;;56.60;2.17;;;;;;;;;;5004310;28;20486;-71
2024/03/11 11:12:52;;;;;;;56.00;2.00;;;;;;;;;;5019931;28;20476;-69
2024/03/11 11:15:20;;;;;;;55.77;2.40;;;;;;;;;;5032036;28;20450;-70
2024/03/11 11:17:48;;;;;;;55.47;2.00;;;;;;;;;;5031657;28;20470;-71
2024/03/11 11:20:30;;;;;;;56.47;2.10;;;;;;;;;;5011968;28;20530;-71
2024/03/11 11:23:00;;;;;;;59.30;1.93;;;;;;;;;;5012146;28;20443;-71
2024/03/11 11:25:39;;;;;;;55.80;2.00;;;;;;;;;;5011825;28;20481;-71
2024/03/11 11:28:08;;;;;;;57.37;2.27;;;;;;;;;;5011736;28;20505;-71
2024/03/11 11:30:36;;;;;;;55.70;1.90;;;;;;;;;;5011706;28;20482;-71
2024/03/11 11:33:04;;;;;;;57.57;2.30;;;;;;;;;;5011559;28;20465;-70
2024/03/11 11:35:37;;;;;;;55.70;2.00;;;;;;;;;;5011785;28;20459;-70
2024/03/11 11:38:37;;;;;;;55.67;2.00;;;;;;;;;;5011341;28;20488;-70
2024/03/11 11:41:32;;;;;;;55.47;2.03;;;;;;;;;;4989530;28;20964;-71
2024/03/11 11:43:59;;;;;;;56.07;1.90;;;;;;;;;;4989393;28;20825;-70
2024/03/11 11:46:43;;;;;;;59.07;2.00;;;;;;;;;;4989326;28;20475;-70
2024/03/11 11:49:17;;;;;;;56.87;2.20;;;;;;;;;;4989495;28;20448;-70
2024/03/11 11:51:46;;;;;;;55.60;1.70;;;;;;;;;;4989474;28;20938;-69
2024/03/11 11:54:22;;;;;;;55.40;1.87;;;;;;;;;;4993494;28;20455;-69
2024/03/11 11:56:49;;;;;;;55.50;2.00;;;;;;;;;;4993628;28;20473;-69
2024/03/11 11:59:20;;;;;;;54.97;1.70;;;;;;;;;;4993617;28;20443;-70
2024/03/11 12:01:48;;;;;;;55.60;1.87;;;;;;;;;;4993402;28;20526;-70
2024/03/11 12:04:15;;;;;;;56.70;2.20;;;;;;;;;;4993141;28;20443;-70
2024/03/11 12:06:43;;;;;;;56.20;1.63;;;;;;;;;;4993016;28;20467;-70
2024/03/11 12:09:13;;;;;;;55.77;1.80;;;;;;;;;;4993299;28;20451;-70
2024/03/11 12:11:45;;;;;;;56.67;2.20;;;;;;;;;;5000842;28;21045;-70
2024/03/11 12:14:12;;;;;;;55.60;1.93;;;;;;;;;;5014897;28;20458;-70
2024/03/11 12:16:41;;;;;;;55.87;2.17;;;;;;;;;;5014829;28;20474;-69
2024/03/11 12:19:10;;;;;;;55.60;1.90;;;;;;;;;;5015076;28;20978;-70
2024/03/11 12:21:40;;;;;;;57.37;2.20;;;;;;;;;;5014918;28;20932;-71
2024/03/11 12:24:09;;;;;;;55.83;2.20;;;;;;;;;;5015071;28;20469;-70
2024/03/11 12:26:38;;;;;;;56.40;2.20;;;;;;;;;;5014832;28;21006;-70
2024/03/11 12:29:06;;;;;;;56.20;2.00;;;;;;;;;;5014751;28;20453;-70
2024/03/11 12:31:34;;;;;;;55.67;2.00;;;;;;;;;;5014860;28;20556;-70
2024/03/11 12:34:02;;;;;;;55.80;1.83;;;;;;;;;;5014929;28;20542;-70
2024/03/11 12:36:30;;;;;;;56.10;2.13;;;;;;;;;;5014468;28;20470;-70
2024/03/11 12:38:57;;;;;;;56.73;2.20;;;;;;;;;;5014687;28;20451;-71
2024/03/11 12:41:41;;;;;;;57.03;2.20;;;;;;;;;;5014599;28;20962;-70
2024/03/11 12:44:17;;;;;;;55.97;2.07;;;;;;;;;;5014728;28;20790;-70
2024/03/11 12:46:45;;;;;;;56.20;2.27;;;;;;;;;;5014422;28;20477;-70
2024/03/11 12:49:12;;;;;;;57.70;2.17;;;;;;;;;;5014378;28;20979;-70
2024/03/11 12:51:40;;;;;;;57.17;2.50;;;;;;;;;;5014467;28;20486;-70
2024/03/11 12:54:15;;;;;;;56.83;2.47;;;;;;;;;;5014226;28;20458;-71
2024/03/11 12:56:47;;;;;;;59.50;2.27;;;;;;;;;;5014556;28;20470;-70
2024/03/11 12:59:14;;;;;;;56.40;2.40;;;;;;;;;;5014635;28;20446;-70
2024/03/11 13:01:43;;;;;;;55.80;2.20;;;;;;;;;;5014332;28;20443;-70
2024/03/11 13:04:20;;;;;;;56.10;2.10;;;;;;;;;;5015330;28;20451;-70
2024/03/11 13:06:48;;;;;;;57.40;2.27;;;;;;;;;;5033430;28;20993;-70
2024/03/11 13:09:24;;;;;;;55.80;2.20;;;;;;;;;;5034388;28;20871;-70
2024/03/11 13:12:01;;;;;;;55.77;2.00;;;;;;;;;;5034052;28;20485;-70
2024/03/11 13:14:28;;;;;;;55.80;2.00;;;;;;;;;;5034112;28;20446;-70
2024/03/11 13:16:56;;;;;;;55.90;2.00;;;;;;;;;;5033662;28;20467;-70
2024/03/11 13:19:25;;;;;;;56.00;2.20;;;;;;;;;;5034180;28;20863;-71
2024/03/11 13:21:52;;;;;;;56.57;2.20;;;;;;;;;;5033886;28;20989;-70
2024/03/11 13:24:20;;;;;;;55.80;2.20;;;;;;;;;;5035145;28;20538;-70
2024/03/11 13:26:49;;;;;;;56.83;2.27;;;;;;;;;;5036350;28;20561;-71
2024/03/11 13:29:19;;;;;;;55.57;1.97;;;;;;;;;;5023132;28;20454;-70
2024/03/11 13:31:47;;;;;;;55.57;1.80;;;;;;;;;;5014120;28;20569;-71
2024/03/11 13:34:14;;;;;;;56.00;2.20;;;;;;;;;;5014149;28;20449;-71
2024/03/11 13:36:41;;;;;;;55.37;2.10;;;;;;;;;;5013351;28;20470;-70
2024/03/11 13:39:16;;;;;;;56.17;2.20;;;;;;;;;;5014136;28;20832;-71
2024/03/11 13:41:45;;;;;;;55.40;1.93;;;;;;;;;;5015514;28;20450;-71
2024/03/11 13:44:12;;;;;;;55.80;2.00;;;;;;;;;;5013910;28;20482;-71
2024/03/11 13:46:43;;;;;;;56.30;2.30;;;;;;;;;;5013067;28;20482;-70
2024/03/11 13:49:10;;;;;;;56.10;2.30;;;;;;;;;;5013595;28;20538;-68
2024/03/11 13:51:39;;;;;;;56.00;2.00;;;;;;;;;;5013183;28;20895;-69
2024/03/11 13:54:06;;;;;;;55.97;2.00;;;;;;;;;;5013209;28;20511;-70
2024/03/11 13:56:33;;;;;;;57.17;2.27;;;;;;;;;;5012997;28;20608;-71
2024/03/11 13:59:05;;;;;;;57.07;2.70;;;;;;;;;;5013092;28;20455;-70
2024/03/11 14:01:32;;;;;;;56.70;1.90;;;;;;;;;;5013157;28;20497;-70
2024/03/11 14:04:00;;;;;;;55.67;1.93;;;;;;;;;;5013084;28;20833;-70
2024/03/11 14:06:27;;;;;;;56.07;2.13;;;;;;;;;;5012800;28;20462;-70
2024/03/11 14:08:54;;;;;;;55.43;1.77;;;;;;;;;;5012888;28;20493;-70
2024/03/11 14:11:25;;;;;;;55.70;2.00;;;;;;;;;;5012419;28;20482;-70
2024/03/11 14:13:53;;;;;;;55.47;1.70;;;;;;;;;;5013152;28;20451;-70
2024/03/11 14:16:20;;;;;;;55.67;2.10;;;;;;;;;;5012590;28;20455;-70
2024/03/11 14:18:48;;;;;;;56.30;2.20;;;;;;;;;;5027390;28;20545;-70
2024/03/11 14:21:16;;;;;;;55.23;1.80;;;;;;;;;;5032325;28;20477;-70
2024/03/11 14:23:43;;;;;;;55.87;2.20;;;;;;;;;;5032254;28;20746;-70
2024/03/11 14:26:12;;;;;;;57.60;2.23;;;;;;;;;;5032510;28;20450;-70
2024/03/11 14:28:41;;;;;;;56.00;2.37;;;;;;;;;;5032474;28;20452;-70
2024/03/11 14:31:12;;;;;;;56.97;2.10;;;;;;;;;;5022920;28;20490;-70
2024/03/11 14:33:41;;;;;;;56.40;1.80;;;;;;;;;;5025996;28;20934;-70
2024/03/11 14:36:08;;;;;;;55.73;2.00;;;;;;;;;;5031787;28;20454;-70
2024/03/11 14:38:38;;;;;;;56.00;1.97;;;;;;;;;;5032145;28;20557;-70